createdAt,value
2018-03-06T00:01:52.908Z,89.72
2018-03-06T00:04:21.319Z,89.76
2018-03-06T00:06:49.665Z,89.78
2018-03-06T00:09:18.067Z,89.88
2018-03-06T00:11:48.341Z,90.02
2018-03-06T00:14:18.873Z,90.08
2018-03-06T00:16:48.242Z,90.08
2018-03-06T00:19:16.579Z,90.18
2018-03-06T00:21:44.915Z,90.28
2018-03-06T00:24:13.271Z,90.29
2018-03-06T00:26:41.606Z,90.28
2018-03-06T00:29:11.732Z,90.32
2018-03-06T00:31:40.076Z,90.29
2018-03-06T00:34:08.445Z,90.33
2018-03-06T00:36:37.586Z,90.41
2018-03-06T00:39:06.038Z,90.42
2018-03-06T00:41:34.592Z,90.42
2018-03-06T00:44:02.929Z,90.39
2018-03-06T00:46:31.248Z,90.40
2018-03-06T00:48:59.628Z,90.38
2018-03-06T00:51:28.094Z,90.40
2018-03-06T00:53:59.071Z,90.42
2018-03-06T00:56:28.288Z,90.45
2018-03-06T00:58:57.483Z,90.49
2018-03-06T01:01:28.509Z,90.60
2018-03-06T01:03:56.912Z,90.67
2018-03-06T01:06:25.291Z,90.65
2018-03-06T01:08:53.609Z,90.67
2018-03-06T01:11:22.791Z,90.72
2018-03-06T01:13:51.140Z,90.82
2018-03-06T01:16:19.595Z,90.95
2018-03-06T01:18:47.944Z,90.98
2018-03-06T01:21:16.393Z,91.06
2018-03-06T01:23:45.803Z,91.24
2018-03-06T01:26:16.867Z,91.29
2018-03-06T01:28:45.298Z,91.35
2018-03-06T01:31:13.629Z,91.42
2018-03-06T01:33:42.025Z,91.54
2018-03-06T01:36:14.830Z,91.58
2018-03-06T01:38:43.178Z,91.60
2018-03-06T01:41:11.510Z,91.66
2018-03-06T01:43:39.842Z,91.67
2018-03-06T01:46:08.183Z,91.65
2018-03-06T01:48:36.537Z,91.60
2018-03-06T01:51:04.881Z,91.58
2018-03-06T01:53:33.331Z,91.55
2018-03-06T01:56:01.677Z,91.55
2018-03-06T01:58:30.054Z,91.62
2018-03-06T02:00:58.459Z,91.65
2018-03-06T02:03:26.804Z,91.64
2018-03-06T02:05:55.187Z,91.69
2018-03-06T02:08:23.501Z,91.71
2018-03-06T02:10:51.911Z,91.74
2018-03-06T02:13:20.454Z,91.74
2018-03-06T02:15:48.934Z,91.73
2018-03-06T02:18:17.374Z,91.67
2018-03-06T02:20:45.829Z,91.62
2018-03-06T02:23:14.197Z,91.51
2018-03-06T02:25:42.555Z,91.42
2018-03-06T02:28:11.722Z,91.34
2018-03-06T02:30:41.673Z,91.27
2018-03-06T02:33:10.058Z,91.25
2018-03-06T02:35:38.508Z,91.38
2018-03-06T02:38:08.709Z,91.54
2018-03-06T02:40:37.092Z,91.67
2018-03-06T02:43:07.348Z,91.77
2018-03-06T02:45:35.727Z,91.83
2018-03-06T02:48:04.866Z,91.89
2018-03-06T02:50:33.229Z,91.91
2018-03-06T02:53:04.439Z,91.91
2018-03-06T02:55:32.896Z,91.91
2018-03-06T02:58:02.016Z,91.94
2018-03-06T03:00:32.118Z,91.99
2018-03-06T03:03:02.648Z,92.02
2018-03-06T03:05:31.154Z,92.01
2018-03-06T03:07:59.546Z,92.00
2018-03-06T03:10:29.472Z,92.00
2018-03-06T03:12:57.803Z,92.01
2018-03-06T03:15:26.184Z,92.07
2018-03-06T03:17:55.616Z,92.04
2018-03-06T03:20:25.798Z,92.03
2018-03-06T03:22:54.183Z,91.97
2018-03-06T03:25:22.600Z,91.92
2018-03-06T03:27:50.972Z,91.88
2018-03-06T03:30:19.403Z,91.92
2018-03-06T03:32:49.442Z,91.96
2018-03-06T03:35:17.874Z,92.08
2018-03-06T03:37:46.239Z,92.08
2018-03-06T03:40:16.260Z,92.07
2018-03-06T03:42:44.713Z,92.09
2018-03-06T03:45:14.999Z,92.16
2018-03-06T03:47:43.376Z,92.17
2018-03-06T03:50:11.754Z,92.22
2018-03-06T03:52:42.697Z,92.31
2018-03-06T03:55:12.710Z,92.42
2018-03-06T03:57:41.038Z,92.48
2018-03-06T04:00:11.159Z,92.49
2018-03-06T04:02:39.529Z,92.51
2018-03-06T04:05:07.874Z,92.54
2018-03-06T04:07:37.954Z,92.61
2018-03-06T04:10:06.460Z,92.68
2018-03-06T04:12:34.905Z,92.71
2018-03-06T04:15:03.384Z,92.74
2018-03-06T04:17:33.540Z,92.77
2018-03-06T04:20:04.080Z,92.80
2018-03-06T04:22:34.580Z,92.82
2018-03-06T04:25:04.519Z,92.88
2018-03-06T04:27:32.898Z,92.90
2018-03-06T04:30:01.393Z,92.89
2018-03-06T04:32:29.735Z,92.89
2018-03-06T04:34:58.162Z,92.93
2018-03-06T04:37:28.302Z,92.95
2018-03-06T04:39:58.386Z,92.96
2018-03-06T04:42:26.733Z,93.00
2018-03-06T04:44:55.098Z,92.95
2018-03-06T04:47:23.520Z,92.99
2018-03-06T04:49:51.898Z,92.92
2018-03-06T04:52:21.977Z,92.86
2018-03-06T04:54:50.442Z,92.83
2018-03-06T04:57:20.560Z,92.84
2018-03-06T04:59:48.941Z,92.89
2018-03-06T05:02:19.113Z,92.86
2018-03-06T05:04:47.635Z,92.87
2018-03-06T05:07:16.069Z,92.87
2018-03-06T05:09:44.462Z,92.85
2018-03-06T05:12:12.807Z,92.87
2018-03-06T05:14:41.139Z,92.78
2018-03-06T05:17:09.567Z,92.77
2018-03-06T05:19:37.998Z,92.76
2018-03-06T05:22:08.072Z,92.72
2018-03-06T05:24:36.440Z,92.72
2018-03-06T05:27:04.835Z,92.72
2018-03-06T05:29:33.182Z,92.69
2018-03-06T05:32:04.268Z,92.66
2018-03-06T05:34:32.723Z,92.62
2018-03-06T05:37:01.062Z,92.57
2018-03-06T05:39:32.054Z,92.57
2018-03-06T05:42:00.582Z,92.55
2018-03-06T05:44:28.968Z,92.47
2018-03-06T05:46:59.410Z,92.44
2018-03-06T05:49:30.398Z,92.33
2018-03-06T05:52:00.651Z,92.28
2018-03-06T05:54:31.692Z,92.23
2018-03-06T05:57:00.085Z,92.19
2018-03-06T05:59:29.167Z,92.07
2018-03-06T06:01:57.573Z,92.00
2018-03-06T06:04:27.562Z,91.97
2018-03-06T06:06:58.619Z,91.92
2018-03-06T06:09:27.966Z,91.87
2018-03-06T06:11:56.409Z,91.85
2018-03-06T06:14:24.777Z,91.84
2018-03-06T06:16:53.197Z,91.71
2018-03-06T06:19:23.331Z,91.73
2018-03-06T06:21:53.579Z,91.70
2018-03-06T06:24:22.167Z,91.64
2018-03-06T06:26:51.484Z,91.51
2018-03-06T06:29:21.759Z,91.43
2018-03-06T06:31:50.136Z,91.28
2018-03-06T06:34:19.435Z,91.16
2018-03-06T06:36:47.923Z,91.00
2018-03-06T06:39:16.352Z,91.00
2018-03-06T06:41:44.942Z,91.00
2018-03-06T06:44:13.349Z,90.94
2018-03-06T06:46:43.339Z,90.86
2018-03-06T06:49:11.865Z,90.83
2018-03-06T06:51:41.844Z,90.81
2018-03-06T06:54:10.610Z,90.70
2018-03-06T06:56:38.935Z,90.70
2018-03-06T06:59:08.115Z,90.65
2018-03-06T07:01:36.557Z,90.58
2018-03-06T07:04:04.992Z,90.53
2018-03-06T07:06:33.433Z,90.55
2018-03-06T07:09:03.580Z,90.52
2018-03-06T07:11:32.069Z,90.49
2018-03-06T07:14:00.699Z,90.54
2018-03-06T07:16:29.081Z,90.36
2018-03-06T07:18:57.415Z,90.28
2018-03-06T07:21:26.593Z,90.27
2018-03-06T07:23:54.927Z,90.15
2018-03-06T07:26:24.995Z,90.17
2018-03-06T07:28:55.083Z,90.10
2018-03-06T07:31:25.330Z,89.88
2018-03-06T07:33:53.866Z,89.86
2018-03-06T07:36:22.351Z,89.67
2018-03-06T07:38:51.584Z,89.74
2018-03-06T07:41:20.758Z,89.73
2018-03-06T07:43:49.117Z,89.69
2018-03-06T07:46:17.792Z,89.53
2018-03-06T07:48:46.170Z,89.35
2018-03-06T07:51:14.554Z,89.24
2018-03-06T07:53:43.595Z,88.95
2018-03-06T07:56:12.182Z,88.91
2018-03-06T07:58:40.579Z,88.74
2018-03-06T08:01:09.028Z,88.71
2018-03-06T08:03:37.444Z,88.61
2018-03-06T08:06:08.428Z,88.55
2018-03-06T08:08:36.821Z,88.50
2018-03-06T08:11:05.396Z,88.35
2018-03-06T08:13:34.518Z,88.23
2018-03-06T08:16:03.031Z,87.99
2018-03-06T08:18:31.382Z,87.95
2018-03-06T08:20:59.760Z,87.84
2018-03-06T08:23:28.175Z,87.84
2018-03-06T08:25:56.482Z,87.77
2018-03-06T08:28:24.824Z,87.62
2018-03-06T08:30:56.053Z,87.29
2018-03-06T08:33:24.620Z,87.08
2018-03-06T08:35:53.054Z,87.03
2018-03-06T08:38:22.227Z,87.04
2018-03-06T08:40:51.326Z,87.02
2018-03-06T08:43:19.622Z,86.98
2018-03-06T08:45:47.981Z,86.95
2018-03-06T08:48:16.388Z,86.96
2018-03-06T08:50:44.768Z,86.60
2018-03-06T08:53:15.680Z,86.35
2018-03-06T08:55:44.880Z,86.38
2018-03-06T08:58:13.985Z,86.30
2018-03-06T09:00:42.414Z,86.57
2018-03-06T09:03:10.812Z,86.78
2018-03-06T09:05:40.257Z,86.60
2018-03-06T09:08:08.599Z,86.27
2018-03-06T09:10:36.918Z,86.17
2018-03-06T09:13:07.004Z,86.03
2018-03-06T09:15:35.381Z,85.67
2018-03-06T09:18:03.828Z,85.61
2018-03-06T09:20:32.222Z,85.07
2018-03-06T09:23:00.599Z,84.86
2018-03-06T09:25:29.050Z,84.54
2018-03-06T09:27:58.256Z,84.51
2018-03-06T09:30:26.712Z,84.71
2018-03-06T09:32:55.065Z,84.85
2018-03-06T09:35:23.420Z,84.95
2018-03-06T09:37:51.774Z,85.13
2018-03-06T09:40:20.157Z,84.10
2018-03-06T09:42:50.381Z,84.56
2018-03-06T09:45:20.501Z,84.46
2018-03-06T09:47:48.851Z,84.89
2018-03-06T09:50:17.288Z,84.87
2018-03-06T09:52:45.756Z,84.42
2018-03-06T09:55:17.009Z,84.15
2018-03-06T09:57:46.210Z,84.13
2018-03-06T10:00:16.269Z,84.15
2018-03-06T10:02:44.676Z,83.81
2018-03-06T10:05:13.611Z,83.14
2018-03-06T10:07:42.073Z,83.47
2018-03-06T10:10:10.432Z,83.90
2018-03-06T10:12:40.551Z,83.87
2018-03-06T10:15:09.019Z,84.17
2018-03-06T10:17:37.338Z,84.33
2018-03-06T10:20:05.678Z,84.32
2018-03-06T10:22:34.010Z,83.36
2018-03-06T10:25:02.345Z,83.58
2018-03-06T10:27:30.701Z,83.50
2018-03-06T10:29:59.002Z,84.01
2018-03-06T10:32:27.360Z,83.91
2018-03-06T10:34:58.489Z,83.83
2018-03-06T10:37:26.874Z,83.43
2018-03-06T10:39:55.354Z,83.50
2018-03-06T10:42:24.452Z,83.89
2018-03-06T10:44:55.306Z,83.70
2018-03-06T10:47:24.478Z,83.70
2018-03-06T10:49:52.866Z,83.56
2018-03-06T10:52:21.236Z,83.46
2018-03-06T10:54:51.457Z,83.30
2018-03-06T10:57:21.600Z,83.45
2018-03-06T10:59:50.074Z,83.54
2018-03-06T11:02:18.447Z,83.43
2018-03-06T11:04:46.799Z,83.33
2018-03-06T11:07:15.842Z,83.30
2018-03-06T11:09:44.248Z,83.16
2018-03-06T11:12:12.589Z,82.80
2018-03-06T11:14:40.950Z,82.44
2018-03-06T11:17:09.325Z,82.31
2018-03-06T11:19:37.650Z,81.46
2018-03-06T11:22:06.019Z,81.32
2018-03-06T11:24:34.406Z,81.86
2018-03-06T11:27:02.778Z,81.79
2018-03-06T11:29:31.170Z,80.52
2018-03-06T11:31:59.496Z,81.43
2018-03-06T11:34:29.644Z,81.41
2018-03-06T11:36:59.088Z,81.34
2018-03-06T11:39:27.643Z,81.30
2018-03-06T11:41:56.240Z,81.41
2018-03-06T11:44:24.605Z,81.50
2018-03-06T11:46:53.814Z,81.41
2018-03-06T11:49:22.134Z,81.13
2018-03-06T11:51:50.577Z,81.07
2018-03-06T11:54:20.802Z,81.04
2018-03-06T11:56:53.212Z,81.33
2018-03-06T11:59:21.794Z,80.77
2018-03-06T12:01:50.234Z,81.27
2018-03-06T12:04:18.593Z,81.40
2018-03-06T12:06:46.886Z,81.61
2018-03-06T12:09:15.520Z,81.63
2018-03-06T12:11:43.948Z,81.78
2018-03-06T12:14:12.277Z,81.94
2018-03-06T12:16:40.683Z,81.65
2018-03-06T12:19:09.046Z,81.95
2018-03-06T12:21:39.145Z,82.19
2018-03-06T12:24:07.524Z,82.13
2018-03-06T12:26:36.552Z,82.23
2018-03-06T12:29:05.034Z,82.11
2018-03-06T12:31:35.239Z,81.84
2018-03-06T12:34:03.564Z,81.84
2018-03-06T12:36:34.397Z,81.94
2018-03-06T12:39:02.806Z,82.01
2018-03-06T12:41:31.193Z,81.87
2018-03-06T12:43:59.595Z,81.55
2018-03-06T12:46:27.962Z,81.70
2018-03-06T12:48:58.308Z,82.04
2018-03-06T12:51:30.789Z,82.37
2018-03-06T12:53:59.900Z,82.20
2018-03-06T12:56:28.251Z,81.77
2018-03-06T12:58:56.723Z,81.77
2018-03-06T13:01:25.117Z,81.77
2018-03-06T13:03:53.491Z,81.54
2018-03-06T13:06:22.014Z,81.16
2018-03-06T13:08:50.993Z,81.03
2018-03-06T13:11:19.313Z,81.09
2018-03-06T13:13:47.725Z,81.06
2018-03-06T13:16:16.163Z,81.13
2018-03-06T13:18:46.724Z,80.92
2018-03-06T13:21:15.395Z,79.77
2018-03-06T13:23:43.825Z,79.94
2018-03-06T13:26:14.240Z,80.58
2018-03-06T13:28:46.407Z,79.57
2018-03-06T13:31:14.769Z,79.92
2018-03-06T13:33:43.141Z,80.49
2018-03-06T13:36:11.655Z,80.06
2018-03-06T13:38:40.713Z,80.56
2018-03-06T13:41:11.016Z,80.51
2018-03-06T13:43:39.410Z,80.53
2018-03-06T13:46:07.765Z,80.20
2018-03-06T13:48:37.885Z,80.59
2018-03-06T13:51:06.286Z,80.40
2018-03-06T13:53:34.659Z,78.96
2018-03-06T13:56:03.123Z,79.37
2018-03-06T13:58:32.464Z,78.16
2018-03-06T14:01:00.955Z,78.38
2018-03-06T14:03:29.323Z,78.31
2018-03-06T14:05:57.820Z,78.71
2018-03-06T14:08:26.145Z,78.68
2018-03-06T14:10:55.156Z,79.01
2018-03-06T14:13:23.635Z,78.19
2018-03-06T14:15:53.664Z,78.72
2018-03-06T14:18:22.098Z,78.82
2018-03-06T14:20:50.465Z,78.32
2018-03-06T14:23:18.805Z,78.36
2018-03-06T14:25:47.146Z,78.70
2018-03-06T14:28:15.606Z,79.08
2018-03-06T14:30:43.961Z,79.05
2018-03-06T14:33:12.667Z,78.11
2018-03-06T14:35:41.225Z,77.86
2018-03-06T14:38:10.524Z,77.30
2018-03-06T14:40:41.767Z,77.37
2018-03-06T14:45:44.712Z,78.20
2018-03-06T14:48:13.040Z,78.07
2018-03-06T14:50:43.118Z,78.23
2018-03-06T14:53:13.675Z,78.04
2018-03-06T14:55:42.937Z,78.07
2018-03-06T14:58:13.383Z,77.89
2018-03-06T15:00:44.315Z,78.16
2018-03-06T15:03:12.711Z,78.41
2018-03-06T15:05:41.813Z,77.99
2018-03-06T15:08:10.187Z,78.30
2018-03-06T15:10:38.533Z,78.55
2018-03-06T15:13:07.771Z,78.54
2018-03-06T15:15:36.217Z,78.49
2018-03-06T15:18:07.120Z,78.48
2018-03-06T15:20:35.647Z,78.97
2018-03-06T15:23:03.979Z,78.26
2018-03-06T15:25:32.392Z,78.27
2018-03-06T15:28:00.955Z,78.42
2018-03-06T15:30:29.287Z,78.86
2018-03-06T15:33:00.575Z,78.75
2018-03-06T15:35:28.973Z,78.63
2018-03-06T15:37:57.346Z,78.92
2018-03-06T15:40:25.671Z,79.14
2018-03-06T15:42:54.088Z,79.20
2018-03-06T15:45:22.520Z,79.28
2018-03-06T15:47:50.858Z,79.64
2018-03-06T15:50:19.290Z,79.54
2018-03-06T15:52:47.661Z,79.56
2018-03-06T15:55:17.793Z,79.56
2018-03-06T15:57:47.771Z,79.66
2018-03-06T16:00:18.796Z,79.62
2018-03-06T16:02:47.215Z,79.90
2018-03-06T16:05:15.589Z,80.01
2018-03-06T16:07:43.943Z,80.26
2018-03-06T16:10:12.347Z,80.31
2018-03-06T16:12:40.860Z,80.40
2018-03-06T16:15:09.225Z,80.45
2018-03-06T16:17:38.513Z,80.38
2018-03-06T16:20:06.916Z,80.45
2018-03-06T16:22:35.363Z,80.54
2018-03-06T16:25:03.994Z,80.71
2018-03-06T16:27:35.033Z,80.82
2018-03-06T16:30:03.496Z,80.96
2018-03-06T16:32:32.062Z,81.04
2018-03-06T16:35:00.434Z,81.18
2018-03-06T16:37:29.876Z,81.29
2018-03-06T16:39:58.208Z,81.40
2018-03-06T16:42:28.439Z,81.52
2018-03-06T16:44:56.816Z,81.62
2018-03-06T16:47:25.198Z,81.74
2018-03-06T16:49:53.581Z,81.98
2018-03-06T16:52:22.098Z,82.11
2018-03-06T16:54:52.480Z,82.38
2018-03-06T16:57:20.943Z,82.60
2018-03-06T16:59:49.342Z,82.72
2018-03-06T17:02:20.345Z,82.82
2018-03-06T17:04:48.801Z,83.00
2018-03-06T17:07:17.260Z,83.24
2018-03-06T17:09:45.658Z,83.63
2018-03-06T17:12:14.108Z,84.04
2018-03-06T17:14:44.189Z,84.31
2018-03-06T17:17:12.668Z,84.53
2018-03-06T17:19:42.880Z,85.03
2018-03-06T17:22:11.235Z,85.27
2018-03-06T17:24:39.578Z,85.57
2018-03-06T17:27:08.877Z,86.13
2018-03-06T17:29:37.319Z,86.07
2018-03-06T17:32:05.867Z,86.06
2018-03-06T17:34:34.950Z,86.13
2018-03-06T17:37:03.382Z,86.29
2018-03-06T17:39:31.685Z,86.58
2018-03-06T17:42:00.063Z,86.91
2018-03-06T17:44:28.447Z,87.02
2018-03-06T17:46:58.486Z,87.05
2018-03-06T17:49:26.937Z,87.41
2018-03-06T17:51:55.312Z,87.56
2018-03-06T17:54:24.003Z,87.86
2018-03-06T17:56:53.302Z,88.54
2018-03-06T17:59:21.756Z,88.79
2018-03-06T18:01:50.328Z,88.91
2018-03-06T18:04:20.485Z,89.11
2018-03-06T18:06:48.919Z,89.83
2018-03-06T18:09:18.192Z,90.41
2018-03-06T18:11:46.604Z,90.44
2018-03-06T18:14:15.237Z,90.92
2018-03-06T18:16:43.597Z,91.60
2018-03-06T18:19:12.027Z,92.06
2018-03-06T18:21:40.513Z,92.05
2018-03-06T18:24:08.957Z,91.95
2018-03-06T18:26:38.189Z,92.29
2018-03-06T18:29:07.596Z,92.41
2018-03-06T18:31:35.962Z,92.51
2018-03-06T18:34:05.478Z,92.53
2018-03-06T18:36:36.436Z,93.10
2018-03-06T18:39:05.908Z,92.98
2018-03-06T18:41:34.337Z,92.96
2018-03-06T18:44:02.875Z,93.43
2018-03-06T18:46:32.079Z,93.55
2018-03-06T18:49:02.237Z,93.43
2018-03-06T18:51:31.249Z,93.43
2018-03-06T18:53:59.733Z,93.40
2018-03-06T18:56:28.146Z,93.72
2018-03-06T18:58:56.580Z,93.86
2018-03-06T19:05:00.399Z,94.24
2018-03-06T19:07:28.855Z,94.20
2018-03-06T19:09:58.034Z,94.26
2018-03-06T19:12:26.421Z,94.28
2018-03-06T19:14:56.352Z,94.50
2018-03-06T19:17:27.139Z,94.69
2018-03-06T19:19:56.679Z,94.72
2018-03-06T19:22:25.117Z,94.84
2018-03-06T19:24:55.333Z,94.96
2018-03-06T19:27:23.676Z,95.22
2018-03-06T19:29:53.114Z,95.29
2018-03-06T19:32:21.458Z,95.34
2018-03-06T19:34:51.541Z,95.33
2018-03-06T19:37:19.987Z,95.23
2018-03-06T19:39:50.093Z,95.14
2018-03-06T19:42:18.489Z,95.09
2018-03-06T19:44:46.922Z,95.14
2018-03-06T19:47:15.261Z,95.02
2018-03-06T19:49:43.710Z,95.04
2018-03-06T19:52:12.300Z,95.04
2018-03-06T19:54:40.640Z,95.24
2018-03-06T19:57:10.661Z,95.28
2018-03-06T19:59:41.504Z,95.35
2018-03-06T20:02:10.126Z,95.51
2018-03-06T20:04:42.206Z,95.60
2018-03-06T20:07:10.860Z,95.68
2018-03-06T20:09:42.870Z,95.62
2018-03-06T20:12:12.991Z,95.63
2018-03-06T20:14:47.056Z,95.65
2018-03-06T20:17:18.186Z,95.64
2018-03-06T20:19:46.606Z,95.66
2018-03-06T20:22:15.221Z,95.63
2018-03-06T20:24:49.111Z,95.68
2018-03-06T20:27:17.766Z,95.73
2018-03-06T20:29:46.169Z,95.67
2018-03-06T20:32:20.188Z,95.83
2018-03-06T20:34:48.650Z,96.09
2018-03-06T20:37:17.014Z,96.33
2018-03-06T20:39:51.078Z,96.47
2018-03-06T20:42:21.374Z,96.52
2018-03-06T20:44:54.010Z,96.60
2018-03-06T20:47:22.535Z,96.66
2018-03-06T20:49:51.209Z,96.76
2018-03-06T20:52:19.676Z,96.86
2018-03-06T20:54:53.700Z,96.89
2018-03-06T20:57:23.811Z,96.84
2018-03-06T20:59:54.046Z,96.84
2018-03-06T21:02:22.441Z,96.96
2018-03-06T21:04:50.925Z,97.12
2018-03-06T21:07:19.280Z,97.16
2018-03-06T21:09:47.667Z,97.31
2018-03-06T21:12:15.996Z,97.37
2018-03-06T21:14:44.585Z,97.46
2018-03-06T21:17:15.256Z,97.52
2018-03-06T21:19:43.628Z,97.52
2018-03-06T21:22:13.780Z,97.46
2018-03-06T21:24:43.766Z,97.39
2018-03-06T21:27:12.170Z,97.36
2018-03-06T21:29:40.499Z,97.31
2018-03-06T21:32:10.582Z,97.25
2018-03-06T21:34:39.335Z,97.18
2018-03-06T21:37:07.672Z,97.14
2018-03-06T21:39:36.076Z,97.10
2018-03-06T21:42:04.454Z,97.06
2018-03-06T21:44:32.827Z,97.00
2018-03-06T21:47:01.239Z,97.02
2018-03-06T21:49:30.306Z,97.10
2018-03-06T21:54:33.482Z,97.36
2018-03-06T21:57:01.808Z,97.37
2018-03-06T21:59:30.202Z,97.39
2018-03-06T22:01:58.561Z,97.41
2018-03-06T22:04:26.963Z,97.55
2018-03-06T22:06:58.111Z,97.92
2018-03-06T22:09:26.490Z,97.80
2018-03-06T22:11:54.900Z,97.61
2018-03-06T22:14:25.458Z,97.47
2018-03-06T22:16:55.546Z,97.56
2018-03-06T22:19:25.787Z,97.53
2018-03-06T22:21:54.108Z,97.46
2018-03-06T22:24:23.199Z,97.44
2018-03-06T22:26:52.259Z,97.51
2018-03-06T22:29:20.707Z,97.62
2018-03-06T22:31:49.235Z,97.75
2018-03-06T22:34:17.621Z,97.98
2018-03-06T22:36:45.961Z,98.06
2018-03-06T22:39:14.363Z,98.14
2018-03-06T22:41:42.772Z,98.11
2018-03-06T22:44:11.210Z,98.09
2018-03-06T22:46:39.576Z,98.11
2018-03-06T22:49:08.671Z,98.25
2018-03-06T22:51:37.307Z,98.37
2018-03-06T22:54:05.670Z,98.46
2018-03-06T22:56:34.821Z,98.52
2018-03-06T22:59:03.216Z,98.54
2018-03-06T23:01:33.398Z,98.55
2018-03-06T23:04:03.640Z,98.58
2018-03-06T23:06:34.221Z,98.54
2018-03-06T23:09:02.556Z,98.49
2018-03-06T23:11:30.992Z,98.43
2018-03-06T23:14:01.705Z,98.41
2018-03-06T23:16:30.134Z,98.40
2018-03-06T23:18:58.651Z,98.36
2018-03-06T23:21:27.008Z,98.40
2018-03-06T23:23:55.354Z,98.47
2018-03-06T23:26:24.747Z,98.38
2018-03-06T23:28:53.217Z,98.26
2018-03-06T23:31:21.536Z,98.18
2018-03-06T23:33:51.913Z,98.07
2018-03-06T23:36:21.102Z,98.03
2018-03-06T23:38:51.284Z,98.00
2018-03-06T23:41:19.660Z,98.01
2018-03-06T23:43:48.014Z,98.07
2018-03-06T23:46:17.127Z,98.05
2018-03-06T23:48:45.486Z,98.06
2018-03-06T23:51:13.853Z,98.19
2018-03-06T23:53:42.355Z,98.22
2018-03-06T23:56:10.817Z,98.23
2018-03-06T23:58:39.206Z,98.26
